sensor_id;sensor_type;location;lat;lon;timestamp;pressure;altitude;pressure_sealevel;temperature;humidity
49451;BME280;35336;48.400;10.886;2023-02-18T00:00:14;97112.38;;;9.90;85.83
49451;BME280;35336;48.400;10.886;2023-02-18T00:00:30;97106.88;;;9.92;85.89
49451;BME280;35336;48.400;10.886;2023-02-18T00:00:45;97112.84;;;10.02;85.62
49451;BME280;35336;48.400;10.886;2023-02-18T00:01:01;97125.47;;;10.08;85.62
49451;BME280;35336;48.400;10.886;2023-02-18T00:01:18;97117.31;;;10.01;85.28
49451;BME280;35336;48.400;10.886;2023-02-18T00:01:34;97113.66;;;10.02;85.47
49451;BME280;35336;48.400;10.886;2023-02-18T00:01:49;97075.28;;;9.80;85.01
49451;BME280;35336;48.400;10.886;2023-02-18T00:02:04;97122.44;;;10.11;85.27
49451;BME280;35336;48.400;10.886;2023-02-18T00:02:20;97104.00;;;10.01;84.93
49451;BME280;35336;48.400;10.886;2023-02-18T00:02:35;97124.94;;;10.13;85.17
49451;BME280;35336;48.400;10.886;2023-02-18T00:02:50;97127.75;;;10.11;85.09
49451;BME280;35336;48.400;10.886;2023-02-18T00:03:05;97120.78;;;10.10;84.92
49451;BME280;35336;48.400;10.886;2023-02-18T00:03:21;97121.13;;;10.07;85.24
49451;BME280;35336;48.400;10.886;2023-02-18T00:03:36;97107.03;;;9.98;85.05
49451;BME280;35336;48.400;10.886;2023-02-18T00:03:52;97123.63;;;10.09;85.07
49451;BME280;35336;48.400;10.886;2023-02-18T00:04:08;97125.47;;;10.08;85.27
49451;BME280;35336;48.400;10.886;2023-02-18T00:04:24;97114.31;;;10.05;85.29
49451;BME280;35336;48.400;10.886;2023-02-18T00:04:39;97123.78;;;10.07;85.29
49451;BME280;35336;48.400;10.886;2023-02-18T00:04:54;97111.50;;;9.98;84.99
49451;BME280;35336;48.400;10.886;2023-02-18T00:05:10;97111.19;;;10.01;85.04
49451;BME280;35336;48.400;10.886;2023-02-18T00:05:27;97119.69;;;9.96;84.96
49451;BME280;35336;48.400;10.886;2023-02-18T00:05:43;97119.78;;;10.11;84.96
49451;BME280;35336;48.400;10.886;2023-02-18T00:05:58;97113.66;;;10.02;84.94
49451;BME280;35336;48.400;10.886;2023-02-18T00:06:17;97111.81;;;10.03;84.86
49451;BME280;35336;48.400;10.886;2023-02-18T00:06:34;97124.09;;;10.12;84.99
49451;BME280;35336;48.400;10.886;2023-02-18T00:06:50;97120.63;;;10.12;84.83
49451;BME280;35336;48.400;10.886;2023-02-18T00:07:05;97114.63;;;10.10;84.62
49451;BME280;35336;48.400;10.886;2023-02-18T00:07:20;97123.28;;;10.12;84.83
49451;BME280;35336;48.400;10.886;2023-02-18T00:07:37;97110.19;;;10.02;85.00
49451;BME280;35336;48.400;10.886;2023-02-18T00:07:53;97104.97;;;10.09;84.70
49451;BME280;35336;48.400;10.886;2023-02-18T00:08:08;97113.63;;;10.11;84.83
49451;BME280;35336;48.400;10.886;2023-02-18T00:08:23;97111.78;;;10.11;84.88
49451;BME280;35336;48.400;10.886;2023-02-18T00:08:40;97110.31;;;10.00;84.78
49451;BME280;35336;48.400;10.886;2023-02-18T00:08:56;97125.75;;;10.13;84.59
49451;BME280;35336;48.400;10.886;2023-02-18T00:09:11;97078.91;;;9.88;84.76
49451;BME280;35336;48.400;10.886;2023-02-18T00:09:26;97102.19;;;10.02;84.83
49451;BME280;35336;48.400;10.886;2023-02-18T00:09:42;97101.16;;;10.03;84.87
49451;BME280;35336;48.400;10.886;2023-02-18T00:09:57;97108.47;;;10.09;84.68
49451;BME280;35336;48.400;10.886;2023-02-18T00:10:14;97115.81;;;10.07;84.97
49451;BME280;35336;48.400;10.886;2023-02-18T00:10:30;97099.84;;;9.99;84.86
49451;BME280;35336;48.400;10.886;2023-02-18T00:10:45;97095.91;;;9.95;84.88
49451;BME280;35336;48.400;10.886;2023-02-18T00:11:00;97114.63;;;10.10;84.70
49451;BME280;35336;48.400;10.886;2023-02-18T00:11:17;97102.19;;;10.02;84.78
49451;BME280;35336;48.400;10.886;2023-02-18T00:11:34;97115.28;;;10.12;84.66
49451;BME280;35336;48.400;10.886;2023-02-18T00:11:50;97081.09;;;9.84;84.86
49451;BME280;35336;48.400;10.886;2023-02-18T00:12:05;97093.88;;;9.97;84.65
49451;BME280;35336;48.400;10.886;2023-02-18T00:12:20;97116.63;;;10.08;84.86
49451;BME280;35336;48.400;10.886;2023-02-18T00:12:36;97083.72;;;9.92;84.50
49451;BME280;35336;48.400;10.886;2023-02-18T00:12:51;97116.28;;;10.11;84.82
49451;BME280;35336;48.400;10.886;2023-02-18T00:13:07;97120.94;;;10.09;84.52
49451;BME280;35336;48.400;10.886;2023-02-18T00:13:22;97091.34;;;10.04;84.64
49451;BME280;35336;48.400;10.886;2023-02-18T00:13:37;97122.09;;;10.14;84.61
49451;BME280;35336;48.400;10.886;2023-02-18T00:13:55;97119.44;;;10.14;84.22
49451;BME280;35336;48.400;10.886;2023-02-18T00:14:12;97095.81;;;10.03;84.52
49451;BME280;35336;48.400;10.886;2023-02-18T00:14:28;97121.25;;;10.14;84.57
49451;BME280;35336;48.400;10.886;2023-02-18T00:14:43;97101.47;;;10.08;84.37
49451;BME280;35336;48.400;10.886;2023-02-18T00:14:59;97101.81;;;10.05;84.33
49451;BME280;35336;48.400;10.886;2023-02-18T00:15:14;97092.81;;;10.06;84.10
49451;BME280;35336;48.400;10.886;2023-02-18T00:15:29;97111.06;;;10.17;84.15
49451;BME280;35336;48.400;10.886;2023-02-18T00:15:45;97113.75;;;10.17;84.11
49451;BME280;35336;48.400;10.886;2023-02-18T00:16:02;97095.78;;;10.11;84.13
49451;BME280;35336;48.400;10.886;2023-02-18T00:16:17;97092.16;;;10.04;84.09
49451;BME280;35336;48.400;10.886;2023-02-18T00:16:33;97093.81;;;10.05;84.12
49451;BME280;35336;48.400;10.886;2023-02-18T00:16:48;97111.06;;;10.17;84.04
49451;BME280;35336;48.400;10.886;2023-02-18T00:17:03;97121.72;;;10.17;84.20
49451;BME280;35336;48.400;10.886;2023-02-18T00:17:19;97105.75;;;10.17;83.87
49451;BME280;35336;48.400;10.886;2023-02-18T00:17:34;97092.81;;;10.06;84.22
49451;BME280;35336;48.400;10.886;2023-02-18T00:17:49;97085.84;;;10.05;84.29
49451;BME280;35336;48.400;10.886;2023-02-18T00:18:06;97073.03;;;10.00;84.07
49451;BME280;35336;48.400;10.886;2023-02-18T00:18:21;97112.41;;;10.22;84.14
49451;BME280;35336;48.400;10.886;2023-02-18T00:18:37;97103.94;;;10.18;83.90
49451;BME280;35336;48.400;10.886;2023-02-18T00:18:57;97112.41;;;10.22;83.98
49451;BME280;35336;48.400;10.886;2023-02-18T00:19:18;97109.06;;;10.20;83.86
49451;BME280;35336;48.400;10.886;2023-02-18T00:19:33;97104.78;;;10.10;83.87
49451;BME280;35336;48.400;10.886;2023-02-18T00:19:49;97092.16;;;10.04;84.06
49451;BME280;35336;48.400;10.886;2023-02-18T00:20:05;97094.50;;;10.07;83.87
49451;BME280;35336;48.400;10.886;2023-02-18T00:20:21;97090.16;;;10.06;84.04
49451;BME280;35336;48.400;10.886;2023-02-18T00:20:38;97113.41;;;10.21;83.88
49451;BME280;35336;48.400;10.886;2023-02-18T00:20:53;97120.41;;;10.22;83.84
49451;BME280;35336;48.400;10.886;2023-02-18T00:21:09;97092.50;;;10.09;83.67
49451;BME280;35336;48.400;10.886;2023-02-18T00:21:25;97103.78;;;10.11;83.88
49451;BME280;35336;48.400;10.886;2023-02-18T00:21:41;97118.06;;;10.18;83.82
49451;BME280;35336;48.400;10.886;2023-02-18T00:21:57;97104.63;;;10.12;83.75
49451;BME280;35336;48.400;10.886;2023-02-18T00:22:12;97101.59;;;10.15;83.99
49451;BME280;35336;48.400;10.886;2023-02-18T00:22:28;97091.13;;;10.13;83.72
49451;BME280;35336;48.400;10.886;2023-02-18T00:22:43;97108.72;;;10.23;83.88
49451;BME280;35336;48.400;10.886;2023-02-18T00:22:58;97100.31;;;10.11;83.65
49451;BME280;35336;48.400;10.886;2023-02-18T00:23:14;97107.72;;;10.24;83.61
49451;BME280;35336;48.400;10.886;2023-02-18T00:23:29;97108.06;;;10.21;83.75
49451;BME280;35336;48.400;10.886;2023-02-18T00:23:44;97109.72;;;10.22;83.83
49451;BME280;35336;48.400;10.886;2023-02-18T00:24:00;97107.06;;;10.22;83.87
49451;BME280;35336;48.400;10.886;2023-02-18T00:24:15;97093.78;;;10.13;83.51
49451;BME280;35336;48.400;10.886;2023-02-18T00:24:31;97107.88;;;10.22;83.64
49451;BME280;35336;48.400;10.886;2023-02-18T00:24:46;97067.22;;;9.97;83.56
49451;BME280;35336;48.400;10.886;2023-02-18T00:25:01;97068.88;;;9.98;83.52
49451;BME280;35336;48.400;10.886;2023-02-18T00:25:17;97112.41;;;10.22;83.81
49451;BME280;35336;48.400;10.886;2023-02-18T00:25:32;97077.25;;;9.95;83.56
49451;BME280;35336;48.400;10.886;2023-02-18T00:25:47;97105.22;;;10.22;83.88
49451;BME280;35336;48.400;10.886;2023-02-18T00:26:09;97116.06;;;10.21;83.48
49451;BME280;35336;48.400;10.886;2023-02-18T00:26:25;97092.78;;;10.14;83.58
49451;BME280;35336;48.400;10.886;2023-02-18T00:26:40;97108.72;;;10.23;83.59
49451;BME280;35336;48.400;10.886;2023-02-18T00:26:56;97092.31;;;10.11;83.83
49451;BME280;35336;48.400;10.886;2023-02-18T00:27:11;97103.25;;;10.16;83.55
49451;BME280;35336;48.400;10.886;2023-02-18T00:27:27;97078.84;;;10.04;83.43
49451;BME280;35336;48.400;10.886;2023-02-18T00:27:42;97093.63;;;10.07;83.78
49451;BME280;35336;48.400;10.886;2023-02-18T00:27:57;97107.41;;;10.18;83.87
49451;BME280;35336;48.400;10.886;2023-02-18T00:28:13;97105.44;;;10.12;83.87
49451;BME280;35336;48.400;10.886;2023-02-18T00:28:28;97094.81;;;10.04;83.57
49451;BME280;35336;48.400;10.886;2023-02-18T00:28:45;97084.34;;;10.02;84.04
49451;BME280;35336;48.400;10.886;2023-02-18T00:29:01;97105.59;;;10.19;83.84
49451;BME280;35336;48.400;10.886;2023-02-18T00:29:18;97094.44;;;10.15;83.75
49451;BME280;35336;48.400;10.886;2023-02-18T00:29:34;97109.72;;;10.22;83.54
49451;BME280;35336;48.400;10.886;2023-02-18T00:29:49;97100.13;;;10.12;83.66
49451;BME280;35336;48.400;10.886;2023-02-18T00:30:07;97113.06;;;10.24;83.67
49451;BME280;35336;48.400;10.886;2023-02-18T00:30:23;97114.06;;;10.23;83.76
49451;BME280;35336;48.400;10.886;2023-02-18T00:30:39;97093.31;;;10.10;83.66
49451;BME280;35336;48.400;10.886;2023-02-18T00:30:55;97111.72;;;10.20;83.99
49451;BME280;35336;48.400;10.886;2023-02-18T00:31:16;97121.56;;;10.19;83.85
49451;BME280;35336;48.400;10.886;2023-02-18T00:31:33;97105.25;;;10.14;83.88
49451;BME280;35336;48.400;10.886;2023-02-18T00:31:49;97122.56;;;10.18;83.70
49451;BME280;35336;48.400;10.886;2023-02-18T00:32:04;97119.06;;;10.17;83.82
49451;BME280;35336;48.400;10.886;2023-02-18T00:32:20;97071.91;;;9.95;83.73
49451;BME280;35336;48.400;10.886;2023-02-18T00:32:35;97118.22;;;10.25;83.54
49451;BME280;35336;48.400;10.886;2023-02-18T00:32:50;97104.94;;;10.17;83.61
49451;BME280;35336;48.400;10.886;2023-02-18T00:33:06;97100.56;;;10.24;83.58
49451;BME280;35336;48.400;10.886;2023-02-18T00:33:21;97120.03;;;10.25;83.32
49451;BME280;35336;48.400;10.886;2023-02-18T00:33:37;97091.81;;;10.07;83.39
49451;BME280;35336;48.400;10.886;2023-02-18T00:33:53;97104.78;;;10.10;83.72
49451;BME280;35336;48.400;10.886;2023-02-18T00:34:09;97095.16;;;10.09;83.53
49451;BME280;35336;48.400;10.886;2023-02-18T00:34:25;97102.97;;;10.11;83.56
49451;BME280;35336;48.400;10.886;2023-02-18T00:34:40;97095.09;;;10.17;83.47
49451;BME280;35336;48.400;10.886;2023-02-18T00:34:56;97107.63;;;10.09;83.71
49451;BME280;35336;48.400;10.886;2023-02-18T00:35:11;97110.72;;;10.21;83.50
49451;BME280;35336;48.400;10.886;2023-02-18T00:35:26;97091.63;;;10.09;83.38
49451;BME280;35336;48.400;10.886;2023-02-18T00:35:42;97113.09;;;10.15;83.65
49451;BME280;35336;48.400;10.886;2023-02-18T00:36:02;97101.31;;;10.10;83.89
49451;BME280;35336;48.400;10.886;2023-02-18T00:36:19;97099.81;;;10.07;83.67
49451;BME280;35336;48.400;10.886;2023-02-18T00:36:35;97101.47;;;10.08;83.82
49451;BME280;35336;48.400;10.886;2023-02-18T00:36:50;97127.06;;;10.17;83.78
49451;BME280;35336;48.400;10.886;2023-02-18T00:37:05;97093.63;;;10.07;83.72
49451;BME280;35336;48.400;10.886;2023-02-18T00:37:21;97093.31;;;10.10;83.84
49451;BME280;35336;48.400;10.886;2023-02-18T00:37:36;97114.78;;;10.16;83.72
49451;BME280;35336;48.400;10.886;2023-02-18T00:37:51;97109.44;;;10.16;83.94
49451;BME280;35336;48.400;10.886;2023-02-18T00:38:07;97118.25;;;10.17;84.03
49451;BME280;35336;48.400;10.886;2023-02-18T00:38:22;97092.00;;;10.06;84.09
49451;BME280;35336;48.400;10.886;2023-02-18T00:38:37;97108.09;;;10.12;84.10
49451;BME280;35336;48.400;10.886;2023-02-18T00:38:55;97109.78;;;10.13;83.76
49451;BME280;35336;48.400;10.886;2023-02-18T00:39:11;97101.31;;;10.10;84.06
49451;BME280;35336;48.400;10.886;2023-02-18T00:39:26;97104.97;;;10.09;84.14
49451;BME280;35336;48.400;10.886;2023-02-18T00:39:42;97091.63;;;10.09;83.85
49451;BME280;35336;48.400;10.886;2023-02-18T00:39:57;97097.81;;;10.09;84.12
49451;BME280;35336;48.400;10.886;2023-02-18T00:40:12;97096.16;;;10.08;83.81
49451;BME280;35336;48.400;10.886;2023-02-18T00:40:28;97113.09;;;10.15;84.00
49451;BME280;35336;48.400;10.886;2023-02-18T00:40:43;97108.25;;;10.19;83.79
49451;BME280;35336;48.400;10.886;2023-02-18T00:40:59;97112.09;;;10.16;83.77
49451;BME280;35336;48.400;10.886;2023-02-18T00:41:14;97087.97;;;10.10;83.70
49451;BME280;35336;48.400;10.886;2023-02-18T00:41:30;97115.72;;;10.24;83.63
49451;BME280;35336;48.400;10.886;2023-02-18T00:41:45;97072.56;;;9.97;83.64
49451;BME280;35336;48.400;10.886;2023-02-18T00:42:01;97103.06;;;10.17;83.90
49451;BME280;35336;48.400;10.886;2023-02-18T00:42:16;97117.72;;;10.22;83.73
49451;BME280;35336;48.400;10.886;2023-02-18T00:42:31;97113.22;;;10.22;83.50
49451;BME280;35336;48.400;10.886;2023-02-18T00:42:46;97112.41;;;10.22;83.67
49451;BME280;35336;48.400;10.886;2023-02-18T00:43:02;97110.72;;;10.21;83.69
49451;BME280;35336;48.400;10.886;2023-02-18T00:43:17;97090.97;;;10.07;83.31
49451;BME280;35336;48.400;10.886;2023-02-18T00:43:33;97109.06;;;10.20;83.79
49451;BME280;35336;48.400;10.886;2023-02-18T00:43:48;97096.63;;;10.12;83.38
49451;BME280;35336;48.400;10.886;2023-02-18T00:44:05;97091.81;;;10.07;83.48
49451;BME280;35336;48.400;10.886;2023-02-18T00:44:20;97103.94;;;10.18;83.89
49451;BME280;35336;48.400;10.886;2023-02-18T00:44:35;97097.16;;;10.07;83.73
49451;BME280;35336;48.400;10.886;2023-02-18T00:44:51;97109.44;;;10.16;83.67
49451;BME280;35336;48.400;10.886;2023-02-18T00:45:06;97087.50;;;10.06;83.88
49451;BME280;35336;48.400;10.886;2023-02-18T00:45:22;97104.09;;;10.16;83.87
49451;BME280;35336;48.400;10.886;2023-02-18T00:45:37;97101.75;;;10.22;83.56
49451;BME280;35336;48.400;10.886;2023-02-18T00:45:52;97105.06;;;10.24;83.66
49451;BME280;35336;48.400;10.886;2023-02-18T00:46:08;97083.94;;;10.14;83.18
49451;BME280;35336;48.400;10.886;2023-02-18T00:46:24;97105.69;;;10.26;83.47
49451;BME280;35336;48.400;10.886;2023-02-18T00:46:40;97084.13;;;10.12;83.30
49451;BME280;35336;48.400;10.886;2023-02-18T00:46:55;97100.78;;;10.14;83.51
49451;BME280;35336;48.400;10.886;2023-02-18T00:47:10;97086.59;;;10.14;83.35
49451;BME280;35336;48.400;10.886;2023-02-18T00:47:26;97103.03;;;10.26;83.11
49451;BME280;35336;48.400;10.886;2023-02-18T00:47:41;97084.97;;;10.13;83.30
49451;BME280;35336;48.400;10.886;2023-02-18T00:47:56;97096.03;;;10.25;83.13
49451;BME280;35336;48.400;10.886;2023-02-18T00:48:12;97101.38;;;10.25;83.49
49451;BME280;35336;48.400;10.886;2023-02-18T00:48:27;97090.31;;;10.13;83.30
49451;BME280;35336;48.400;10.886;2023-02-18T00:48:43;97102.75;;;10.21;83.35
49451;BME280;35336;48.400;10.886;2023-02-18T00:48:58;97102.56;;;10.22;83.16
49451;BME280;35336;48.400;10.886;2023-02-18T00:49:14;97065.53;;;10.04;83.15
49451;BME280;35336;48.400;10.886;2023-02-18T00:49:30;97102.75;;;10.21;83.40
49451;BME280;35336;48.400;10.886;2023-02-18T00:49:45;97088.13;;;10.16;83.47
49451;BME280;35336;48.400;10.886;2023-02-18T00:50:01;97083.84;;;10.07;83.50
49451;BME280;35336;48.400;10.886;2023-02-18T00:50:16;97110.72;;;10.21;83.32
49451;BME280;35336;48.400;10.886;2023-02-18T00:50:31;97111.41;;;10.23;83.43
49451;BME280;35336;48.400;10.886;2023-02-18T00:50:47;97084.97;;;10.13;83.44
49451;BME280;35336;48.400;10.886;2023-02-18T00:51:03;97091.78;;;10.15;83.26
49451;BME280;35336;48.400;10.886;2023-02-18T00:51:18;97096.63;;;10.12;83.61
49451;BME280;35336;48.400;10.886;2023-02-18T00:51:34;97104.09;;;10.16;83.33
49451;BME280;35336;48.400;10.886;2023-02-18T00:51:50;97090.63;;;10.10;83.69
49451;BME280;35336;48.400;10.886;2023-02-18T00:52:05;97081.13;;;10.15;83.75
49451;BME280;35336;48.400;10.886;2023-02-18T00:52:20;97073.69;;;10.02;83.53
49451;BME280;35336;48.400;10.886;2023-02-18T00:52:36;97088.44;;;10.13;83.42
49451;BME280;35336;48.400;10.886;2023-02-18T00:52:51;97094.44;;;10.15;83.67
49451;BME280;35336;48.400;10.886;2023-02-18T00:53:06;97112.41;;;10.22;83.45
49451;BME280;35336;48.400;10.886;2023-02-18T00:53:22;97098.94;;;10.15;83.60
49451;BME280;35336;48.400;10.886;2023-02-18T00:53:38;97085.97;;;10.12;83.43
49451;BME280;35336;48.400;10.886;2023-02-18T00:53:53;97079.47;;;10.14;83.18
49451;BME280;35336;48.400;10.886;2023-02-18T00:54:09;97102.88;;;10.27;83.45
49451;BME280;35336;48.400;10.886;2023-02-18T00:54:24;97096.38;;;10.30;83.13
49451;BME280;35336;48.400;10.886;2023-02-18T00:54:39;97092.56;;;10.24;83.08
49451;BME280;35336;48.400;10.886;2023-02-18T00:54:55;97094.03;;;10.27;83.18
49451;BME280;35336;48.400;10.886;2023-02-18T00:55:10;97080.75;;;10.18;83.18
49451;BME280;35336;48.400;10.886;2023-02-18T00:55:25;97097.56;;;10.27;83.17
49451;BME280;35336;48.400;10.886;2023-02-18T00:55:43;97086.94;;;10.19;82.99
49451;BME280;35336;48.400;10.886;2023-02-18T00:55:58;97052.72;;;9.99;83.11
49451;BME280;35336;48.400;10.886;2023-02-18T00:56:14;97046.75;;;9.97;83.21
49451;BME280;35336;48.400;10.886;2023-02-18T00:56:29;97083.59;;;10.17;83.21
49451;BME280;35336;48.400;10.886;2023-02-18T00:56:44;97086.75;;;10.21;83.26
49451;BME280;35336;48.400;10.886;2023-02-18T00:57:00;97078.81;;;10.12;83.41
49451;BME280;35336;48.400;10.886;2023-02-18T00:57:15;97100.75;;;10.23;83.54
49451;BME280;35336;48.400;10.886;2023-02-18T00:57:30;97096.13;;;10.16;83.31
49451;BME280;35336;48.400;10.886;2023-02-18T00:57:46;97096.75;;;10.18;83.29
49451;BME280;35336;48.400;10.886;2023-02-18T00:58:01;97074.03;;;9.99;83.29
49451;BME280;35336;48.400;10.886;2023-02-18T00:58:16;97096.13;;;10.16;83.33
49451;BME280;35336;48.400;10.886;2023-02-18T00:58:34;97080.97;;;10.09;83.63
49451;BME280;35336;48.400;10.886;2023-02-18T00:58:49;97104.09;;;10.16;83.66
49451;BME280;35336;48.400;10.886;2023-02-18T00:59:05;97096.94;;;10.17;83.64
49451;BME280;35336;48.400;10.886;2023-02-18T00:59:20;97081.34;;;10.06;83.60
49451;BME280;35336;48.400;10.886;2023-02-18T00:59:36;97096.94;;;10.17;83.46
49451;BME280;35336;48.400;10.886;2023-02-18T00:59:51;97094.44;;;10.15;83.85
49451;BME280;35336;48.400;10.886;2023-02-18T01:00:07;97101.06;;;10.20;83.72
49451;BME280;35336;48.400;10.886;2023-02-18T01:00:23;97067.56;;;10.02;83.25
49451;BME280;35336;48.400;10.886;2023-02-18T01:00:38;97065.53;;;10.04;83.65
49451;BME280;35336;48.400;10.886;2023-02-18T01:00:54;97099.72;;;10.24;83.24
49451;BME280;35336;48.400;10.886;2023-02-18T01:01:10;97073.88;;;10.01;83.39
49451;BME280;35336;48.400;10.886;2023-02-18T01:01:26;97092.59;;;10.16;83.51
49451;BME280;35336;48.400;10.886;2023-02-18T01:01:41;97107.88;;;10.22;83.43
49451;BME280;35336;48.400;10.886;2023-02-18T01:01:56;97074.50;;;10.03;83.50
49451;BME280;35336;48.400;10.886;2023-02-18T01:02:11;97081.47;;;10.12;83.59
49451;BME280;35336;48.400;10.886;2023-02-18T01:02:27;97117.38;;;10.25;83.43
49451;BME280;35336;48.400;10.886;2023-02-18T01:02:42;97088.44;;;10.13;83.36
49451;BME280;35336;48.400;10.886;2023-02-18T01:02:57;97075.19;;;10.05;83.37
49451;BME280;35336;48.400;10.886;2023-02-18T01:03:13;97065.41;;;9.97;83.37
49451;BME280;35336;48.400;10.886;2023-02-18T01:03:29;97100.75;;;10.23;83.44
49451;BME280;35336;48.400;10.886;2023-02-18T01:03:44;97104.22;;;10.23;83.45
49451;BME280;35336;48.400;10.886;2023-02-18T01:04:00;97081.47;;;10.12;83.55
49451;BME280;35336;48.400;10.886;2023-02-18T01:04:15;97098.06;;;10.23;83.42
49451;BME280;35336;48.400;10.886;2023-02-18T01:04:30;97061.56;;;10.00;83.40
49451;BME280;35336;48.400;10.886;2023-02-18T01:04:45;97105.88;;;10.24;83.26
49451;BME280;35336;48.400;10.886;2023-02-18T01:05:01;97096.22;;;10.23;83.20
49451;BME280;35336;48.400;10.886;2023-02-18T01:05:16;97091.41;;;10.18;83.14
49451;BME280;35336;48.400;10.886;2023-02-18T01:05:32;97097.22;;;10.22;83.60
49451;BME280;35336;48.400;10.886;2023-02-18T01:05:48;97101.75;;;10.22;83.27
49451;BME280;35336;48.400;10.886;2023-02-18T01:06:05;97109.06;;;10.20;83.40
49451;BME280;35336;48.400;10.886;2023-02-18T01:06:20;97102.06;;;10.18;83.72
49451;BME280;35336;48.400;10.886;2023-02-18T01:06:36;97091.31;;;10.12;83.51
49451;BME280;35336;48.400;10.886;2023-02-18T01:06:51;97081.84;;;10.09;83.62
49451;BME280;35336;48.400;10.886;2023-02-18T01:07:06;97093.50;;;10.08;83.64
49451;BME280;35336;48.400;10.886;2023-02-18T01:07:22;97099.94;;;10.14;83.76
49451;BME280;35336;48.400;10.886;2023-02-18T01:07:37;97088.78;;;10.10;83.49
49451;BME280;35336;48.400;10.886;2023-02-18T01:07:53;97086.78;;;10.12;83.41
49451;BME280;35336;48.400;10.886;2023-02-18T01:08:09;97100.41;;;10.17;83.54
49451;BME280;35336;48.400;10.886;2023-02-18T01:08:25;97089.81;;;10.09;83.47
49451;BME280;35336;48.400;10.886;2023-02-18T01:08:40;97083.47;;;10.10;83.36
49451;BME280;35336;48.400;10.886;2023-02-18T01:08:56;97099.06;;;10.22;83.58
49451;BME280;35336;48.400;10.886;2023-02-18T01:09:11;97091.94;;;10.14;83.61
49451;BME280;35336;48.400;10.886;2023-02-18T01:09:26;97076.34;;;10.02;83.50
49451;BME280;35336;48.400;10.886;2023-02-18T01:09:42;97089.97;;;10.08;83.49
49451;BME280;35336;48.400;10.886;2023-02-18T01:09:57;97096.75;;;10.18;83.71
49451;BME280;35336;48.400;10.886;2023-02-18T01:10:13;97095.75;;;10.20;83.58
49451;BME280;35336;48.400;10.886;2023-02-18T01:10:28;97098.41;;;10.20;83.64
49451;BME280;35336;48.400;10.886;2023-02-18T01:10:46;97090.47;;;10.11;83.43
49451;BME280;35336;48.400;10.886;2023-02-18T01:11:02;97100.78;;;10.14;83.51
49451;BME280;35336;48.400;10.886;2023-02-18T01:11:18;97082.16;;;10.06;83.58
49451;BME280;35336;48.400;10.886;2023-02-18T01:11:33;97098.78;;;10.16;83.71
49451;BME280;35336;48.400;10.886;2023-02-18T01:11:48;97092.59;;;10.16;83.95
49451;BME280;35336;48.400;10.886;2023-02-18T01:12:04;97064.22;;;10.00;84.03
49451;BME280;35336;48.400;10.886;2023-02-18T01:12:19;97090.63;;;10.10;83.80
49451;BME280;35336;48.400;10.886;2023-02-18T01:12:35;97095.75;;;10.20;83.92
49451;BME280;35336;48.400;10.886;2023-02-18T01:12:50;97106.41;;;10.20;83.84
49451;BME280;35336;48.400;10.886;2023-02-18T01:13:05;97080.81;;;10.10;83.81
49451;BME280;35336;48.400;10.886;2023-02-18T01:13:21;97072.31;;;10.07;83.89
49451;BME280;35336;48.400;10.886;2023-02-18T01:13:37;97104.88;;;10.25;83.36
49451;BME280;35336;48.400;10.886;2023-02-18T01:13:52;97091.06;;;10.22;83.42
49451;BME280;35336;48.400;10.886;2023-02-18T01:14:08;97086.78;;;10.12;83.62
49451;BME280;35336;48.400;10.886;2023-02-18T01:14:23;97098.69;;;10.25;83.54
49451;BME280;35336;48.400;10.886;2023-02-18T01:14:38;97075.84;;;10.07;83.83
49451;BME280;35336;48.400;10.886;2023-02-18T01:14:54;97083.09;;;10.22;83.61
49451;BME280;35336;48.400;10.886;2023-02-18T01:15:10;97092.03;;;10.29;83.21
49451;BME280;35336;48.400;10.886;2023-02-18T01:15:28;97076.50;;;10.09;83.38
49451;BME280;35336;48.400;10.886;2023-02-18T01:15:43;97077.94;;;10.20;83.20
49451;BME280;35336;48.400;10.886;2023-02-18T01:15:58;97079.09;;;10.17;83.29
49451;BME280;35336;48.400;10.886;2023-02-18T01:16:14;97079.09;;;10.17;83.45
49451;BME280;35336;48.400;10.886;2023-02-18T01:16:29;97097.84;;;10.32;83.24
49451;BME280;35336;48.400;10.886;2023-02-18T01:16:44;97085.19;;;10.35;83.12
49451;BME280;35336;48.400;10.886;2023-02-18T01:17:00;97085.69;;;10.30;83.30
49451;BME280;35336;48.400;10.886;2023-02-18T01:17:15;97093.50;;;10.40;83.18
49451;BME280;35336;48.400;10.886;2023-02-18T01:17:30;97087.38;;;10.31;83.13
49451;BME280;35336;48.400;10.886;2023-02-18T01:17:46;97081.09;;;10.24;83.22
49451;BME280;35336;48.400;10.886;2023-02-18T01:18:01;97099.16;;;10.37;82.94
49451;BME280;35336;48.400;10.886;2023-02-18T01:18:16;97080.22;;;10.23;83.33
49451;BME280;35336;48.400;10.886;2023-02-18T01:18:32;97082.09;;;10.23;83.11
49451;BME280;35336;48.400;10.886;2023-02-18T01:18:47;97083.09;;;10.22;83.16
49451;BME280;35336;48.400;10.886;2023-02-18T01:19:03;97077.28;;;10.18;83.52
49451;BME280;35336;48.400;10.886;2023-02-18T01:19:18;97091.38;;;10.27;83.53
49451;BME280;35336;48.400;10.886;2023-02-18T01:19:33;97093.56;;;10.23;83.60
49451;BME280;35336;48.400;10.886;2023-02-18T01:19:49;97084.13;;;10.12;83.78
49451;BME280;35336;48.400;10.886;2023-02-18T01:20:05;97050.25;;;9.98;83.74
49451;BME280;35336;48.400;10.886;2023-02-18T01:20:21;97070.63;;;10.14;83.76
49451;BME280;35336;48.400;10.886;2023-02-18T01:20:38;97080.13;;;10.16;83.73
49451;BME280;35336;48.400;10.886;2023-02-18T01:20:54;97063.81;;;10.11;83.83
49451;BME280;35336;48.400;10.886;2023-02-18T01:21:09;97068.66;;;10.08;83.79
49451;BME280;35336;48.400;10.886;2023-02-18T01:21:25;97062.50;;;10.07;83.51
49451;BME280;35336;48.400;10.886;2023-02-18T01:21:40;97075.13;;;10.13;83.56
49451;BME280;35336;48.400;10.886;2023-02-18T01:21:55;97072.47;;;10.13;83.61
49451;BME280;35336;48.400;10.886;2023-02-18T01:22:11;97074.31;;;10.13;83.73